Otley, Iowa
Current Conditions -  °F | °C
As of 4:15 PM on Sunday 25 Jan 2015 (Local Time) from KPEA Reporting Station
Broken Clouds Broken Clouds  
Wind Chill: 26°   Ceiling: 1500
Heat Index: 32°   Visibility: 10mi
Dew Point: 27°   Wind: 6mph
Humidity: 82%   Direction: 350°N
Pressure: 30"   Gusts: NA
Location:  41.46°N, 93.04°W
Report Text: KPEA 252215Z AUTO 35005KT 10SM BKN015 00/M03 A3000 RMK AO2 T00001028
Loading
Personal Weather Stations






























Interactive Weather Map New forecast layout! Learn more

10-Day Weather Forecast

Advertisements
Track Severe Weather on mobile